sensor_id;sensor_type;location;lat;lon;timestamp;pressure;altitude;pressure_sealevel;temperature;humidity
31011;BME280;26395;53.412;19.598;2023-08-30T00:06:12;99219.05;;;21.68;100.00
31011;BME280;26395;53.412;19.598;2023-08-30T00:21:15;99234.81;;;21.73;100.00
31011;BME280;26395;53.412;19.598;2023-08-30T00:36:19;99235.50;;;21.61;100.00
31011;BME280;26395;53.412;19.598;2023-08-30T00:51:23;99214.61;;;21.44;100.00
31011;BME280;26395;53.412;19.598;2023-08-30T01:06:27;99209.34;;;21.39;100.00
31011;BME280;26395;53.412;19.598;2023-08-30T01:21:50;99204.06;;;21.30;100.00
31011;BME280;26395;53.412;19.598;2023-08-30T01:36:57;99236.92;;;21.23;100.00
31011;BME280;26395;53.412;19.598;2023-08-30T01:52:02;99247.69;;;21.17;100.00
31011;BME280;26395;53.412;19.598;2023-08-30T02:07:16;99238.23;;;21.11;100.00
31011;BME280;26395;53.412;19.598;2023-08-30T02:22:22;99220.84;;;21.13;100.00
31011;BME280;26395;53.412;19.598;2023-08-30T02:37:25;99212.95;;;21.29;100.00
31011;BME280;26395;53.412;19.598;2023-08-30T02:52:28;99192.41;;;21.18;100.00
31011;BME280;26395;53.412;19.598;2023-08-30T03:07:34;99197.92;;;21.18;100.00
31011;BME280;26395;53.412;19.598;2023-08-30T03:22:38;99192.97;;;21.09;100.00
31011;BME280;26395;53.412;19.598;2023-08-30T03:37:43;99187.06;;;21.10;100.00
31011;BME280;26395;53.412;19.598;2023-08-30T03:52:46;99178.73;;;21.05;100.00
31011;BME280;26395;53.412;19.598;2023-08-30T04:07:50;99182.46;;;21.02;100.00
31011;BME280;26395;53.412;19.598;2023-08-30T04:22:57;99182.41;;;21.00;100.00
31011;BME280;26395;53.412;19.598;2023-08-30T04:38:03;99185.58;;;20.85;100.00
31011;BME280;26395;53.412;19.598;2023-08-30T04:53:07;99194.02;;;20.84;100.00
31011;BME280;26395;53.412;19.598;2023-08-30T05:08:10;99209.40;;;20.79;100.00
31011;BME280;26395;53.412;19.598;2023-08-30T05:23:17;99220.82;;;20.61;100.00
31011;BME280;26395;53.412;19.598;2023-08-30T05:38:20;99231.98;;;20.70;100.00
31011;BME280;26395;53.412;19.598;2023-08-30T05:53:37;99243.20;;;20.69;100.00
31011;BME280;26395;53.412;19.598;2023-08-30T06:08:41;99246.52;;;20.81;100.00
31011;BME280;26395;53.412;19.598;2023-08-30T06:23:46;99257.34;;;21.01;100.00
31011;BME280;26395;53.412;19.598;2023-08-30T06:38:49;99260.79;;;20.94;100.00
31011;BME280;26395;53.412;19.598;2023-08-30T06:53:53;99244.70;;;20.95;100.00
31011;BME280;26395;53.412;19.598;2023-08-30T07:08:58;99240.52;;;21.22;100.00
31011;BME280;26395;53.412;19.598;2023-08-30T07:24:03;99245.14;;;21.52;100.00
31011;BME280;26395;53.412;19.598;2023-08-30T07:39:06;99268.48;;;21.73;100.00
31011;BME280;26395;53.412;19.598;2023-08-30T07:54:10;99263.55;;;22.05;100.00
31011;BME280;26395;53.412;19.598;2023-08-30T08:09:13;99274.58;;;22.26;100.00
31011;BME280;26395;53.412;19.598;2023-08-30T08:24:19;99287.06;;;21.98;100.00
31011;BME280;26395;53.412;19.598;2023-08-30T08:39:22;99286.36;;;22.23;100.00
31011;BME280;26395;53.412;19.598;2023-08-30T08:54:26;99301.04;;;22.57;100.00
31011;BME280;26395;53.412;19.598;2023-08-30T09:09:30;99308.90;;;22.06;100.00
31011;BME280;26395;53.412;19.598;2023-08-30T09:24:38;99314.59;;;21.92;100.00
31011;BME280;26395;53.412;19.598;2023-08-30T09:39:48;99309.15;;;21.83;100.00
31011;BME280;26395;53.412;19.598;2023-08-30T09:54:52;99305.64;;;22.11;100.00
31011;BME280;26395;53.412;19.598;2023-08-30T10:09:56;99304.89;;;22.18;100.00
31011;BME280;26395;53.412;19.598;2023-08-30T10:25:17;99308.02;;;22.13;100.00
31011;BME280;26395;53.412;19.598;2023-08-30T10:40:22;99303.80;;;22.07;100.00
31011;BME280;26395;53.412;19.598;2023-08-30T10:55:26;99284.23;;;22.96;100.00
31011;BME280;26395;53.412;19.598;2023-08-30T11:10:30;99280.23;;;23.46;100.00
31011;BME280;26395;53.412;19.598;2023-08-30T11:25:35;99289.61;;;23.21;100.00
31011;BME280;26395;53.412;19.598;2023-08-30T11:40:38;99283.63;;;22.94;100.00
31011;BME280;26395;53.412;19.598;2023-08-30T11:55:42;99274.23;;;22.79;100.00
31011;BME280;26395;53.412;19.598;2023-08-30T12:10:46;99268.61;;;22.95;100.00
31011;BME280;26395;53.412;19.598;2023-08-30T12:26:07;99264.71;;;23.13;100.00
31011;BME280;26395;53.412;19.598;2023-08-30T12:41:11;99258.91;;;23.31;100.00
31011;BME280;26395;53.412;19.598;2023-08-30T12:56:15;99256.40;;;23.15;100.00
31011;BME280;26395;53.412;19.598;2023-08-30T13:11:18;99257.52;;;22.96;100.00
31011;BME280;26395;53.412;19.598;2023-08-30T13:26:22;99253.20;;;23.12;100.00
31011;BME280;26395;53.412;19.598;2023-08-30T13:41:26;99250.19;;;23.40;100.00
31011;BME280;26395;53.412;19.598;2023-08-30T13:56:30;99254.73;;;23.61;100.00
31011;BME280;26395;53.412;19.598;2023-08-30T14:11:36;99251.02;;;23.37;100.00
31011;BME280;26395;53.412;19.598;2023-08-30T14:26:42;99247.98;;;23.11;100.00
31011;BME280;26395;53.412;19.598;2023-08-30T14:41:46;99248.98;;;23.20;100.00
31011;BME280;26395;53.412;19.598;2023-08-30T14:56:49;99245.66;;;23.32;100.00
31011;BME280;26395;53.412;19.598;2023-08-30T15:11:52;99229.00;;;22.95;100.00
31011;BME280;26395;53.412;19.598;2023-08-30T15:26:56;99238.90;;;22.86;100.00
31011;BME280;26395;53.412;19.598;2023-08-30T15:42:00;99237.45;;;22.91;100.00
31011;BME280;26395;53.412;19.598;2023-08-30T15:57:04;99251.23;;;22.98;100.00
31011;BME280;26395;53.412;19.598;2023-08-30T16:12:08;99271.62;;;22.77;100.00
31011;BME280;26395;53.412;19.598;2023-08-30T16:27:12;99274.43;;;22.73;100.00
31011;BME280;26395;53.412;19.598;2023-08-30T16:42:15;99284.39;;;22.13;100.00
31011;BME280;26395;53.412;19.598;2023-08-30T16:57:19;99297.64;;;22.21;100.00
31011;BME280;26395;53.412;19.598;2023-08-30T17:12:23;99304.89;;;22.03;100.00
31011;BME280;26395;53.412;19.598;2023-08-30T17:27:27;99297.89;;;22.13;100.00
31011;BME280;26395;53.412;19.598;2023-08-30T17:42:31;99291.91;;;22.13;100.00
31011;BME280;26395;53.412;19.598;2023-08-30T17:57:35;99282.61;;;22.03;100.00
31011;BME280;26395;53.412;19.598;2023-08-30T18:12:39;99278.55;;;21.90;100.00
31011;BME280;26395;53.412;19.598;2023-08-30T18:27:44;99280.25;;;21.80;100.00
31011;BME280;26395;53.412;19.598;2023-08-30T18:42:47;99270.66;;;21.63;100.00
31011;BME280;26395;53.412;19.598;2023-08-30T18:57:51;99262.95;;;21.60;100.00
31011;BME280;26395;53.412;19.598;2023-08-30T19:12:56;99266.27;;;21.55;100.00
31011;BME280;26395;53.412;19.598;2023-08-30T19:28:00;99278.68;;;21.59;100.00
31011;BME280;26395;53.412;19.598;2023-08-30T19:43:04;99288.53;;;21.36;100.00
31011;BME280;26395;53.412;19.598;2023-08-30T19:58:08;99298.19;;;21.43;100.00
31011;BME280;26395;53.412;19.598;2023-08-30T20:13:12;99300.40;;;21.57;100.00
31011;BME280;26395;53.412;19.598;2023-08-30T20:28:16;99298.11;;;21.27;100.00
31011;BME280;26395;53.412;19.598;2023-08-30T20:43:23;99303.58;;;21.29;100.00
31011;BME280;26395;53.412;19.598;2023-08-30T20:58:31;99301.80;;;21.33;100.00
31011;BME280;26395;53.412;19.598;2023-08-30T21:13:34;99298.59;;;21.08;100.00
31011;BME280;26395;53.412;19.598;2023-08-30T21:28:38;99299.83;;;20.89;100.00
31011;BME280;26395;53.412;19.598;2023-08-30T21:43:41;99294.27;;;20.96;100.00
31011;BME280;26395;53.412;19.598;2023-08-30T21:58:46;99292.51;;;21.02;100.00
31011;BME280;26395;53.412;19.598;2023-08-30T22:13:50;99305.27;;;20.90;100.00
31011;BME280;26395;53.412;19.598;2023-08-30T22:28:53;99303.09;;;20.81;100.00
31011;BME280;26395;53.412;19.598;2023-08-30T22:43:58;99316.76;;;20.66;100.00
31011;BME280;26395;53.412;19.598;2023-08-30T22:59:01;99328.42;;;20.45;100.00
31011;BME280;26395;53.412;19.598;2023-08-30T23:14:06;99323.16;;;20.42;100.00
31011;BME280;26395;53.412;19.598;2023-08-30T23:29:09;99314.91;;;20.36;100.00
31011;BME280;26395;53.412;19.598;2023-08-30T23:44:13;99313.60;;;20.29;100.00
31011;BME280;26395;53.412;19.598;2023-08-30T23:59:16;99309.89;;;20.38;100.00
